Hatsu Excel — VSXV3 — position and weather

sailwx.info

Track history (hours):
 
Tides and Currents Weather Stations Pressure Air Temp Water Temp Dewpoint Dewpoint Depression Visibility Wind Speed Wind Dir Waves Ship Positions

Hatsu Excel

Last reported at 2016-Apr-30 00:21 UTC. Time now 2016-Apr-30 01:29 UTC.
Position N 31°23' E 121°34'.

Type: Ship (hazmat cat D). MMSI: 235479000.

Date/timePositionNaut miles runAvg speedWind from/ knotsBaromVisibWave heightAir tempDewpointWater temp
2016-Apr-30 00:21N 31°23' E 121°34'0 0.0
2016-Apr-29 23:27N 31°23' E 121°34'0 0.0
2016-Apr-29 20:23N 31°23' E 121°34'1 0.9
2016-Apr-29 19:33N 31°23' E 121°34'10 9.2
2016-Apr-29 18:31N 31°19' E 121°44'1110.9
2016-Apr-29 17:32N 31°15' E 121°56'1110.7
2016-Apr-29 16:33N 31°13' E 122°08'9 9.2
2016-Apr-29 15:33N 31°07' E 122°17'9 9.0
2016-Apr-29 14:33N 31°07' E 122°27'1211.8
2016-Apr-29 13:33N 31°07' E 122°41'1615.5
2016-Apr-29 12:32N 31°02' E 122°59'1918.4
2016-Apr-29 11:30N 30°51' E 123°17'3818.4
2016-Apr-29 09:26N 30°14' E 123°22'9418.9
2016-Apr-29 04:27N 28°45' E 122°46'38814.4
2016-Apr-28 01:33N 22°44' E 120°06'1111.4
2016-Apr-28 00:33N 22°34' E 120°13'6 0.5
2016-Apr-27 13:28N 22°33' E 120°19'0 0.0
2016-Apr-27 12:33N 22°33' E 120°19'0 0.0
2016-Apr-27 11:33N 22°33' E 120°19'0 0.0
2016-Apr-27 10:33N 22°33' E 120°19'0 0.0
2016-Apr-27 09:33N 22°33' E 120°19'0 0.1
2016-Apr-27 08:33N 22°33' E 120°19'0 0.0
2016-Apr-27 07:33N 22°33' E 120°19'7 6.6
2016-Apr-27 06:33N 22°32' E 120°12'9 9.1
2016-Apr-27 05:33N 22°32' E 120°02'32018.8
2016-Apr-26 12:33N 22°34' E 114°16'0 0.1
2016-Apr-26 11:12N 22°34' E 114°16'0 0.0
2016-Apr-26 10:29N 22°34' E 114°16'0 0.0
2016-Apr-26 00:29N 22°34' E 114°16'0 0.0
2016-Apr-25 23:05N 22°34' E 114°16'0 0.0
2016-Apr-25 22:29N 22°34' E 114°16'0 0.0
2016-Apr-25 21:29N 22°34' E 114°16'0 0.1
2016-Apr-25 20:33N 22°34' E 114°16'23 7.5
2016-Apr-25 17:30N 22°14' E 114°28'20 9.5
2016-Apr-25 15:23N 22°16' E 114°06'4 4.4
2016-Apr-25 14:29N 22°20' E 114°08'0 0.0
2016-Apr-25 13:32N 22°20' E 114°08'0 0.0
2016-Apr-25 12:32N 22°20' E 114°08'0 0.0
2016-Apr-25 11:29N 22°20' E 114°08'0 0.0
2016-Apr-25 09:23N 22°20' E 114°08'0 0.0
2016-Apr-25 08:25N 22°20' E 114°08'0 0.0
2016-Apr-25 07:32N 22°20' E 114°08'0 0.0
2016-Apr-25 06:29N 22°20' E 114°08'0 0.0
2016-Apr-25 05:20N 22°20' E 114°08'0 0.0
2016-Apr-25 04:30N 22°20' E 114°08'2 2.2
2016-Apr-25 03:33N 22°19' E 114°06'11 8.3
2016-Apr-25 02:16N 22°10' E 114°13'810.8
2016-Apr-25 01:33N 22°08' E 114°21'24816.2
2016-Apr-24 10:17N 23°47' E 118°27'1716.3
2016-Apr-24 09:14N 23°58' E 118°42'1116.3
2016-Apr-24 08:33N 24°05' E 118°51'3517.4
2016-Apr-24 06:33N 24°28' E 119°20'1918.4
2016-Apr-24 05:31N 24°40' E 119°36'  
Track history (hours):
 
Tides and Currents Weather Stations Pressure Air Temp Water Temp Dewpoint Dewpoint Depression Visibility Wind Speed Wind Dir Waves Ship Positions

Hatsu Excel

Last reported at 2016-Apr-30 00:21 UTC. Time now 2016-Apr-30 01:29 UTC.
Position N 31°23' E 121°34'.

Type: Ship (hazmat cat D). MMSI: 235479000.

Date/timePositionNaut miles runAvg speedWind from/ knotsBaromVisibWave heightAir tempDewpointWater temp
2016-Apr-30 00:21N 31°23' E 121°34'0 0.0
2016-Apr-29 23:27N 31°23' E 121°34'0 0.0
2016-Apr-29 20:23N 31°23' E 121°34'1 0.9
2016-Apr-29 19:33N 31°23' E 121°34'10 9.2
2016-Apr-29 18:31N 31°19' E 121°44'1110.9
2016-Apr-29 17:32N 31°15' E 121°56'1110.7
2016-Apr-29 16:33N 31°13' E 122°08'9 9.2
2016-Apr-29 15:33N 31°07' E 122°17'9 9.0
2016-Apr-29 14:33N 31°07' E 122°27'1211.8
2016-Apr-29 13:33N 31°07' E 122°41'1615.5
2016-Apr-29 12:32N 31°02' E 122°59'1918.4
2016-Apr-29 11:30N 30°51' E 123°17'3818.4
2016-Apr-29 09:26N 30°14' E 123°22'9418.9
2016-Apr-29 04:27N 28°45' E 122°46'38814.4
2016-Apr-28 01:33N 22°44' E 120°06'1111.4
2016-Apr-28 00:33N 22°34' E 120°13'6 0.5
2016-Apr-27 13:28N 22°33' E 120°19'0 0.0
2016-Apr-27 12:33N 22°33' E 120°19'0 0.0
2016-Apr-27 11:33N 22°33' E 120°19'0 0.0
2016-Apr-27 10:33N 22°33' E 120°19'0 0.0
2016-Apr-27 09:33N 22°33' E 120°19'0 0.1
2016-Apr-27 08:33N 22°33' E 120°19'0 0.0
2016-Apr-27 07:33N 22°33' E 120°19'7 6.6
2016-Apr-27 06:33N 22°32' E 120°12'9 9.1
2016-Apr-27 05:33N 22°32' E 120°02'32018.8
2016-Apr-26 12:33N 22°34' E 114°16'0 0.1
2016-Apr-26 11:12N 22°34' E 114°16'0 0.0
2016-Apr-26 10:29N 22°34' E 114°16'0 0.0
2016-Apr-26 00:29N 22°34' E 114°16'0 0.0
2016-Apr-25 23:05N 22°34' E 114°16'0 0.0
2016-Apr-25 22:29N 22°34' E 114°16'0 0.0
2016-Apr-25 21:29N 22°34' E 114°16'0 0.1
2016-Apr-25 20:33N 22°34' E 114°16'23 7.5
2016-Apr-25 17:30N 22°14' E 114°28'20 9.5
2016-Apr-25 15:23N 22°16' E 114°06'4 4.4
2016-Apr-25 14:29N 22°20' E 114°08'0 0.0
2016-Apr-25 13:32N 22°20' E 114°08'0 0.0
2016-Apr-25 12:32N 22°20' E 114°08'0 0.0
2016-Apr-25 11:29N 22°20' E 114°08'0 0.0
2016-Apr-25 09:23N 22°20' E 114°08'0 0.0
2016-Apr-25 08:25N 22°20' E 114°08'0 0.0
2016-Apr-25 07:32N 22°20' E 114°08'0 0.0
2016-Apr-25 06:29N 22°20' E 114°08'0 0.0
2016-Apr-25 05:20N 22°20' E 114°08'0 0.0
2016-Apr-25 04:30N 22°20' E 114°08'2 2.2
2016-Apr-25 03:33N 22°19' E 114°06'11 8.3
2016-Apr-25 02:16N 22°10' E 114°13'810.8
2016-Apr-25 01:33N 22°08' E 114°21'24816.2
2016-Apr-24 10:17N 23°47' E 118°27'1716.3
2016-Apr-24 09:14N 23°58' E 118°42'1116.3
2016-Apr-24 08:33N 24°05' E 118°51'3517.4
2016-Apr-24 06:33N 24°28' E 119°20'1918.4
2016-Apr-24 05:31N 24°40' E 119°36'  

Dump ship's entire track history